sensor_id;sensor_type;location;lat;lon;timestamp;temperature;humidity
3542;DHT22;1785;47.388;8.538;2024-02-04T00:00:49;6.60;99.90
3542;DHT22;1785;47.388;8.538;2024-02-04T00:03:16;6.70;99.90
3542;DHT22;1785;47.388;8.538;2024-02-04T00:05:42;6.60;99.90
3542;DHT22;1785;47.388;8.538;2024-02-04T00:08:08;6.50;99.90
3542;DHT22;1785;47.388;8.538;2024-02-04T00:10:34;6.70;99.90
3542;DHT22;1785;47.388;8.538;2024-02-04T00:13:01;6.80;99.90
3542;DHT22;1785;47.388;8.538;2024-02-04T00:15:28;7.00;99.90
3542;DHT22;1785;47.388;8.538;2024-02-04T00:17:54;7.00;99.90
3542;DHT22;1785;47.388;8.538;2024-02-04T00:20:20;6.70;99.90
3542;DHT22;1785;47.388;8.538;2024-02-04T00:22:47;6.90;99.90
3542;DHT22;1785;47.388;8.538;2024-02-04T00:25:13;6.80;99.90
3542;DHT22;1785;47.388;8.538;2024-02-04T00:27:40;7.10;99.90
3542;DHT22;1785;47.388;8.538;2024-02-04T00:30:07;7.00;99.90
3542;DHT22;1785;47.388;8.538;2024-02-04T00:32:34;7.10;99.90
3542;DHT22;1785;47.388;8.538;2024-02-04T00:35:00;7.10;99.90
3542;DHT22;1785;47.388;8.538;2024-02-04T00:37:28;7.10;99.90
3542;DHT22;1785;47.388;8.538;2024-02-04T00:39:54;7.40;99.90
3542;DHT22;1785;47.388;8.538;2024-02-04T00:42:21;7.40;99.90
3542;DHT22;1785;47.388;8.538;2024-02-04T00:44:47;7.40;99.90
3542;DHT22;1785;47.388;8.538;2024-02-04T00:47:13;7.70;99.90
3542;DHT22;1785;47.388;8.538;2024-02-04T00:49:40;7.70;99.90
3542;DHT22;1785;47.388;8.538;2024-02-04T00:52:06;8.00;99.90
3542;DHT22;1785;47.388;8.538;2024-02-04T00:54:32;8.00;99.90
3542;DHT22;1785;47.388;8.538;2024-02-04T00:56:59;7.40;99.90
3542;DHT22;1785;47.388;8.538;2024-02-04T00:59:25;7.30;99.90
3542;DHT22;1785;47.388;8.538;2024-02-04T01:01:51;7.40;99.90
3542;DHT22;1785;47.388;8.538;2024-02-04T01:04:18;7.50;99.90
3542;DHT22;1785;47.388;8.538;2024-02-04T01:06:45;7.30;99.90
3542;DHT22;1785;47.388;8.538;2024-02-04T01:09:11;7.60;99.90
3542;DHT22;1785;47.388;8.538;2024-02-04T01:11:37;7.70;99.90
3542;DHT22;1785;47.388;8.538;2024-02-04T01:14:03;7.30;99.90
3542;DHT22;1785;47.388;8.538;2024-02-04T01:16:29;7.60;99.90
3542;DHT22;1785;47.388;8.538;2024-02-04T01:18:55;7.80;99.90
3542;DHT22;1785;47.388;8.538;2024-02-04T01:21:22;7.80;99.90
3542;DHT22;1785;47.388;8.538;2024-02-04T01:23:49;7.70;99.90
3542;DHT22;1785;47.388;8.538;2024-02-04T01:26:15;7.60;99.90
3542;DHT22;1785;47.388;8.538;2024-02-04T01:28:41;7.40;99.90
3542;DHT22;1785;47.388;8.538;2024-02-04T01:31:07;7.20;99.90
3542;DHT22;1785;47.388;8.538;2024-02-04T01:33:33;7.20;99.90
3542;DHT22;1785;47.388;8.538;2024-02-04T01:35:59;7.30;99.90
3542;DHT22;1785;47.388;8.538;2024-02-04T01:38:25;7.30;99.90
3542;DHT22;1785;47.388;8.538;2024-02-04T01:40:52;7.40;99.90
3542;DHT22;1785;47.388;8.538;2024-02-04T01:43:19;7.90;99.90
3542;DHT22;1785;47.388;8.538;2024-02-04T01:45:47;8.00;99.90
3542;DHT22;1785;47.388;8.538;2024-02-04T01:48:13;7.90;99.90
3542;DHT22;1785;47.388;8.538;2024-02-04T01:50:41;7.80;99.90
3542;DHT22;1785;47.388;8.538;2024-02-04T01:53:08;7.50;99.90
3542;DHT22;1785;47.388;8.538;2024-02-04T01:55:34;7.60;99.90
3542;DHT22;1785;47.388;8.538;2024-02-04T01:58:01;7.90;99.90
3542;DHT22;1785;47.388;8.538;2024-02-04T02:00:28;8.00;99.90
3542;DHT22;1785;47.388;8.538;2024-02-04T02:02:55;8.00;99.90
3542;DHT22;1785;47.388;8.538;2024-02-04T02:05:22;8.00;99.90
3542;DHT22;1785;47.388;8.538;2024-02-04T02:07:48;7.70;99.90
3542;DHT22;1785;47.388;8.538;2024-02-04T02:10:17;7.40;99.90
3542;DHT22;1785;47.388;8.538;2024-02-04T02:12:48;7.60;99.90
3542;DHT22;1785;47.388;8.538;2024-02-04T02:15:20;7.70;99.90
3542;DHT22;1785;47.388;8.538;2024-02-04T02:17:52;7.80;99.90
3542;DHT22;1785;47.388;8.538;2024-02-04T02:20:24;8.10;99.90
3542;DHT22;1785;47.388;8.538;2024-02-04T02:22:57;8.20;99.90
3542;DHT22;1785;47.388;8.538;2024-02-04T02:25:31;8.30;99.90
3542;DHT22;1785;47.388;8.538;2024-02-04T02:27:57;8.30;99.90
3542;DHT22;1785;47.388;8.538;2024-02-04T02:30:23;8.20;99.90
3542;DHT22;1785;47.388;8.538;2024-02-04T02:32:50;8.00;99.90
3542;DHT22;1785;47.388;8.538;2024-02-04T02:35:17;7.80;99.90
3542;DHT22;1785;47.388;8.538;2024-02-04T02:37:46;7.50;99.90
3542;DHT22;1785;47.388;8.538;2024-02-04T02:40:19;7.60;99.90
3542;DHT22;1785;47.388;8.538;2024-02-04T02:42:47;7.60;99.90
3542;DHT22;1785;47.388;8.538;2024-02-04T02:45:13;7.50;99.90
3542;DHT22;1785;47.388;8.538;2024-02-04T02:47:42;7.30;99.90
3542;DHT22;1785;47.388;8.538;2024-02-04T02:50:09;7.40;99.90
3542;DHT22;1785;47.388;8.538;2024-02-04T02:52:35;7.60;99.90
3542;DHT22;1785;47.388;8.538;2024-02-04T02:55:01;7.90;99.90
3542;DHT22;1785;47.388;8.538;2024-02-04T02:57:27;8.10;99.90
3542;DHT22;1785;47.388;8.538;2024-02-04T02:59:54;8.20;99.90
3542;DHT22;1785;47.388;8.538;2024-02-04T03:02:20;8.10;99.90
3542;DHT22;1785;47.388;8.538;2024-02-04T03:04:46;8.30;99.90
3542;DHT22;1785;47.388;8.538;2024-02-04T03:07:12;8.40;99.90
3542;DHT22;1785;47.388;8.538;2024-02-04T03:09:38;8.30;99.90
3542;DHT22;1785;47.388;8.538;2024-02-04T03:12:05;8.10;99.90
3542;DHT22;1785;47.388;8.538;2024-02-04T03:14:32;8.00;99.90
3542;DHT22;1785;47.388;8.538;2024-02-04T03:16:58;7.70;99.90
3542;DHT22;1785;47.388;8.538;2024-02-04T03:19:25;7.80;99.90
3542;DHT22;1785;47.388;8.538;2024-02-04T03:21:51;7.70;99.90
3542;DHT22;1785;47.388;8.538;2024-02-04T03:24:17;7.70;99.90
3542;DHT22;1785;47.388;8.538;2024-02-04T03:26:43;7.40;99.90
3542;DHT22;1785;47.388;8.538;2024-02-04T03:29:09;7.40;99.90
3542;DHT22;1785;47.388;8.538;2024-02-04T03:31:35;7.40;99.90
3542;DHT22;1785;47.388;8.538;2024-02-04T03:34:02;7.60;99.90
3542;DHT22;1785;47.388;8.538;2024-02-04T03:36:28;7.60;99.90
3542;DHT22;1785;47.388;8.538;2024-02-04T03:38:54;7.70;99.90
3542;DHT22;1785;47.388;8.538;2024-02-04T03:41:20;7.70;99.90
3542;DHT22;1785;47.388;8.538;2024-02-04T03:43:47;7.50;99.90
3542;DHT22;1785;47.388;8.538;2024-02-04T03:46:13;7.40;99.90
3542;DHT22;1785;47.388;8.538;2024-02-04T03:48:40;7.50;99.90
3542;DHT22;1785;47.388;8.538;2024-02-04T03:51:07;7.40;99.90
3542;DHT22;1785;47.388;8.538;2024-02-04T03:53:33;7.40;99.90
3542;DHT22;1785;47.388;8.538;2024-02-04T03:55:59;7.70;99.90
3542;DHT22;1785;47.388;8.538;2024-02-04T03:58:25;7.80;99.90
3542;DHT22;1785;47.388;8.538;2024-02-04T04:00:55;8.00;99.90
3542;DHT22;1785;47.388;8.538;2024-02-04T04:03:21;8.10;99.90
3542;DHT22;1785;47.388;8.538;2024-02-04T04:05:48;8.20;99.90
3542;DHT22;1785;47.388;8.538;2024-02-04T04:08:14;8.30;99.90
3542;DHT22;1785;47.388;8.538;2024-02-04T04:10:40;8.30;99.90
3542;DHT22;1785;47.388;8.538;2024-02-04T04:13:07;8.40;99.90
3542;DHT22;1785;47.388;8.538;2024-02-04T04:15:33;8.50;99.90
3542;DHT22;1785;47.388;8.538;2024-02-04T04:17:59;8.50;99.90
3542;DHT22;1785;47.388;8.538;2024-02-04T04:20:25;8.50;99.90
3542;DHT22;1785;47.388;8.538;2024-02-04T04:22:51;8.50;99.90
3542;DHT22;1785;47.388;8.538;2024-02-04T04:25:19;8.50;99.90
3542;DHT22;1785;47.388;8.538;2024-02-04T04:27:45;8.60;99.90
3542;DHT22;1785;47.388;8.538;2024-02-04T04:30:12;8.70;99.90
3542;DHT22;1785;47.388;8.538;2024-02-04T04:32:38;8.60;99.90
3542;DHT22;1785;47.388;8.538;2024-02-04T04:35:05;8.40;99.90
3542;DHT22;1785;47.388;8.538;2024-02-04T04:37:31;8.50;99.90
3542;DHT22;1785;47.388;8.538;2024-02-04T04:39:57;8.40;99.90
3542;DHT22;1785;47.388;8.538;2024-02-04T04:42:24;8.30;99.90
3542;DHT22;1785;47.388;8.538;2024-02-04T04:44:50;8.30;99.90
3542;DHT22;1785;47.388;8.538;2024-02-04T04:47:16;8.10;99.90
3542;DHT22;1785;47.388;8.538;2024-02-04T04:49:42;8.00;99.90
3542;DHT22;1785;47.388;8.538;2024-02-04T04:52:08;7.50;99.90
3542;DHT22;1785;47.388;8.538;2024-02-04T04:54:34;7.30;99.90
3542;DHT22;1785;47.388;8.538;2024-02-04T04:57:00;7.60;99.90
3542;DHT22;1785;47.388;8.538;2024-02-04T04:59:27;7.60;99.90
3542;DHT22;1785;47.388;8.538;2024-02-04T05:01:53;7.70;99.90
3542;DHT22;1785;47.388;8.538;2024-02-04T05:04:19;7.90;99.90
3542;DHT22;1785;47.388;8.538;2024-02-04T05:06:49;7.80;99.90
3542;DHT22;1785;47.388;8.538;2024-02-04T05:09:15;7.60;99.90
3542;DHT22;1785;47.388;8.538;2024-02-04T05:11:41;7.60;99.90
3542;DHT22;1785;47.388;8.538;2024-02-04T05:14:07;7.70;99.90
3542;DHT22;1785;47.388;8.538;2024-02-04T05:16:35;7.70;99.90
3542;DHT22;1785;47.388;8.538;2024-02-04T05:19:01;7.90;99.90
3542;DHT22;1785;47.388;8.538;2024-02-04T05:21:28;7.50;99.90
3542;DHT22;1785;47.388;8.538;2024-02-04T05:23:54;7.40;99.90
3542;DHT22;1785;47.388;8.538;2024-02-04T05:26:20;7.10;99.90
3542;DHT22;1785;47.388;8.538;2024-02-04T05:28:46;7.10;99.90
3542;DHT22;1785;47.388;8.538;2024-02-04T05:31:12;7.40;99.90
3542;DHT22;1785;47.388;8.538;2024-02-04T05:33:39;7.50;99.90
3542;DHT22;1785;47.388;8.538;2024-02-04T05:36:06;7.30;99.90
3542;DHT22;1785;47.388;8.538;2024-02-04T05:38:32;7.00;99.90
3542;DHT22;1785;47.388;8.538;2024-02-04T05:40:59;6.70;99.90
3542;DHT22;1785;47.388;8.538;2024-02-04T05:43:25;6.60;99.90
3542;DHT22;1785;47.388;8.538;2024-02-04T05:45:52;6.70;99.90
3542;DHT22;1785;47.388;8.538;2024-02-04T05:48:18;7.10;99.90
3542;DHT22;1785;47.388;8.538;2024-02-04T05:50:45;7.30;99.90
3542;DHT22;1785;47.388;8.538;2024-02-04T05:53:11;7.50;99.90
3542;DHT22;1785;47.388;8.538;2024-02-04T05:55:37;7.50;99.90
3542;DHT22;1785;47.388;8.538;2024-02-04T05:58:03;7.10;99.90
3542;DHT22;1785;47.388;8.538;2024-02-04T06:00:29;7.10;99.90
3542;DHT22;1785;47.388;8.538;2024-02-04T06:02:56;7.00;99.90
3542;DHT22;1785;47.388;8.538;2024-02-04T06:05:22;6.90;99.90
3542;DHT22;1785;47.388;8.538;2024-02-04T06:07:48;7.10;99.90
3542;DHT22;1785;47.388;8.538;2024-02-04T06:10:15;7.30;99.90
3542;DHT22;1785;47.388;8.538;2024-02-04T06:12:44;7.50;99.90
3542;DHT22;1785;47.388;8.538;2024-02-04T06:15:12;7.70;99.90
3542;DHT22;1785;47.388;8.538;2024-02-04T06:17:39;7.80;99.90
3542;DHT22;1785;47.388;8.538;2024-02-04T06:20:05;7.60;99.90
3542;DHT22;1785;47.388;8.538;2024-02-04T06:22:33;7.70;99.90
3542;DHT22;1785;47.388;8.538;2024-02-04T06:25:00;7.60;99.90
3542;DHT22;1785;47.388;8.538;2024-02-04T06:27:26;7.40;99.90
3542;DHT22;1785;47.388;8.538;2024-02-04T06:29:52;7.40;99.90
3542;DHT22;1785;47.388;8.538;2024-02-04T06:32:19;7.30;99.90
3542;DHT22;1785;47.388;8.538;2024-02-04T06:34:46;7.30;99.90
3542;DHT22;1785;47.388;8.538;2024-02-04T06:37:12;7.50;99.90
3542;DHT22;1785;47.388;8.538;2024-02-04T06:39:38;7.60;99.90
3542;DHT22;1785;47.388;8.538;2024-02-04T06:42:05;7.70;99.90
3542;DHT22;1785;47.388;8.538;2024-02-04T06:44:31;7.70;99.90
3542;DHT22;1785;47.388;8.538;2024-02-04T06:46:57;7.90;99.90
3542;DHT22;1785;47.388;8.538;2024-02-04T06:49:23;8.00;99.90
3542;DHT22;1785;47.388;8.538;2024-02-04T06:51:49;8.00;99.90
3542;DHT22;1785;47.388;8.538;2024-02-04T06:54:17;8.00;99.90
3542;DHT22;1785;47.388;8.538;2024-02-04T06:56:44;8.00;99.90
3542;DHT22;1785;47.388;8.538;2024-02-04T06:59:10;8.00;99.90
3542;DHT22;1785;47.388;8.538;2024-02-04T07:01:37;8.00;99.90
3542;DHT22;1785;47.388;8.538;2024-02-04T07:04:03;8.10;99.90
3542;DHT22;1785;47.388;8.538;2024-02-04T07:06:30;8.00;99.90
3542;DHT22;1785;47.388;8.538;2024-02-04T07:08:56;8.00;99.90
3542;DHT22;1785;47.388;8.538;2024-02-04T07:11:22;7.90;99.90
3542;DHT22;1785;47.388;8.538;2024-02-04T07:13:49;7.90;99.90
3542;DHT22;1785;47.388;8.538;2024-02-04T07:16:17;7.90;99.90
3542;DHT22;1785;47.388;8.538;2024-02-04T07:18:43;8.40;99.90
3542;DHT22;1785;47.388;8.538;2024-02-04T07:21:10;9.10;99.90
3542;DHT22;1785;47.388;8.538;2024-02-04T07:23:36;10.10;99.90
3542;DHT22;1785;47.388;8.538;2024-02-04T07:26:02;11.00;99.90
3542;DHT22;1785;47.388;8.538;2024-02-04T07:28:28;11.40;99.90
3542;DHT22;1785;47.388;8.538;2024-02-04T07:30:54;10.60;99.90
3542;DHT22;1785;47.388;8.538;2024-02-04T07:33:21;10.10;99.90
3542;DHT22;1785;47.388;8.538;2024-02-04T07:35:47;9.40;99.90
3542;DHT22;1785;47.388;8.538;2024-02-04T07:38:13;9.10;99.90
3542;DHT22;1785;47.388;8.538;2024-02-04T07:40:39;8.90;99.90
3542;DHT22;1785;47.388;8.538;2024-02-04T07:43:06;8.70;99.90
3542;DHT22;1785;47.388;8.538;2024-02-04T07:45:32;8.40;99.90
3542;DHT22;1785;47.388;8.538;2024-02-04T07:47:58;8.00;99.90
3542;DHT22;1785;47.388;8.538;2024-02-04T07:50:25;7.80;99.90
3542;DHT22;1785;47.388;8.538;2024-02-04T07:52:51;7.70;99.90
3542;DHT22;1785;47.388;8.538;2024-02-04T07:55:17;7.50;99.90
3542;DHT22;1785;47.388;8.538;2024-02-04T07:57:44;7.50;99.90
3542;DHT22;1785;47.388;8.538;2024-02-04T08:00:11;7.70;99.90
3542;DHT22;1785;47.388;8.538;2024-02-04T08:02:37;7.80;99.90
3542;DHT22;1785;47.388;8.538;2024-02-04T08:05:04;8.00;99.90
3542;DHT22;1785;47.388;8.538;2024-02-04T08:07:31;8.00;99.90
3542;DHT22;1785;47.388;8.538;2024-02-04T08:09:57;7.80;99.90
3542;DHT22;1785;47.388;8.538;2024-02-04T08:12:23;7.70;99.90
3542;DHT22;1785;47.388;8.538;2024-02-04T08:14:49;7.80;99.90
3542;DHT22;1785;47.388;8.538;2024-02-04T08:17:15;7.90;99.90
3542;DHT22;1785;47.388;8.538;2024-02-04T08:19:41;8.00;99.90
3542;DHT22;1785;47.388;8.538;2024-02-04T08:22:08;8.00;99.90
3542;DHT22;1785;47.388;8.538;2024-02-04T08:24:35;8.10;99.90
3542;DHT22;1785;47.388;8.538;2024-02-04T08:27:01;8.20;99.90
3542;DHT22;1785;47.388;8.538;2024-02-04T08:29:29;8.20;99.90
3542;DHT22;1785;47.388;8.538;2024-02-04T08:31:55;8.30;99.90
3542;DHT22;1785;47.388;8.538;2024-02-04T08:34:21;8.40;99.90
3542;DHT22;1785;47.388;8.538;2024-02-04T08:36:49;8.40;99.90
3542;DHT22;1785;47.388;8.538;2024-02-04T08:39:15;8.40;99.90
3542;DHT22;1785;47.388;8.538;2024-02-04T08:41:42;8.10;99.90
3542;DHT22;1785;47.388;8.538;2024-02-04T08:44:08;7.80;99.90
3542;DHT22;1785;47.388;8.538;2024-02-04T08:46:35;7.60;99.90
3542;DHT22;1785;47.388;8.538;2024-02-04T08:49:01;7.90;99.90
3542;DHT22;1785;47.388;8.538;2024-02-04T08:51:27;7.90;99.90
3542;DHT22;1785;47.388;8.538;2024-02-04T08:53:53;7.30;99.90
3542;DHT22;1785;47.388;8.538;2024-02-04T08:56:19;7.10;99.90
3542;DHT22;1785;47.388;8.538;2024-02-04T08:58:46;6.80;99.90
3542;DHT22;1785;47.388;8.538;2024-02-04T09:01:12;6.50;99.90
3542;DHT22;1785;47.388;8.538;2024-02-04T09:03:38;6.30;99.90
3542;DHT22;1785;47.388;8.538;2024-02-04T09:06:05;6.30;99.90
3542;DHT22;1785;47.388;8.538;2024-02-04T09:08:31;6.50;99.90
3542;DHT22;1785;47.388;8.538;2024-02-04T09:10:57;6.60;99.90
3542;DHT22;1785;47.388;8.538;2024-02-04T09:13:23;6.70;99.90
3542;DHT22;1785;47.388;8.538;2024-02-04T09:15:50;6.90;99.90
3542;DHT22;1785;47.388;8.538;2024-02-04T09:18:16;7.00;99.90
3542;DHT22;1785;47.388;8.538;2024-02-04T09:20:42;6.90;99.90
3542;DHT22;1785;47.388;8.538;2024-02-04T09:23:09;6.70;99.90
3542;DHT22;1785;47.388;8.538;2024-02-04T09:25:35;6.70;99.90
3542;DHT22;1785;47.388;8.538;2024-02-04T09:28:01;6.90;99.90
3542;DHT22;1785;47.388;8.538;2024-02-04T09:30:27;6.90;99.90
3542;DHT22;1785;47.388;8.538;2024-02-04T09:32:54;7.10;99.90
3542;DHT22;1785;47.388;8.538;2024-02-04T09:35:20;7.10;99.90
3542;DHT22;1785;47.388;8.538;2024-02-04T09:37:46;7.00;99.90
3542;DHT22;1785;47.388;8.538;2024-02-04T09:40:13;7.00;99.90
3542;DHT22;1785;47.388;8.538;2024-02-04T09:42:40;6.80;99.90
3542;DHT22;1785;47.388;8.538;2024-02-04T09:45:07;6.80;99.90
3542;DHT22;1785;47.388;8.538;2024-02-04T09:47:35;7.00;99.90
3542;DHT22;1785;47.388;8.538;2024-02-04T09:50:01;6.90;99.90
3542;DHT22;1785;47.388;8.538;2024-02-04T09:52:29;7.00;99.90
3542;DHT22;1785;47.388;8.538;2024-02-04T09:54:59;7.00;99.90
3542;DHT22;1785;47.388;8.538;2024-02-04T09:57:26;7.00;99.90
3542;DHT22;1785;47.388;8.538;2024-02-04T09:59:52;7.10;99.90
3542;DHT22;1785;47.388;8.538;2024-02-04T10:02:18;7.10;99.90
3542;DHT22;1785;47.388;8.538;2024-02-04T10:04:46;7.40;99.90
3542;DHT22;1785;47.388;8.538;2024-02-04T10:07:13;7.70;99.90
3542;DHT22;1785;47.388;8.538;2024-02-04T10:09:42;7.80;99.90
3542;DHT22;1785;47.388;8.538;2024-02-04T10:12:09;8.10;99.90
3542;DHT22;1785;47.388;8.538;2024-02-04T10:14:35;8.40;99.90
3542;DHT22;1785;47.388;8.538;2024-02-04T10:17:01;8.20;99.90
3542;DHT22;1785;47.388;8.538;2024-02-04T10:19:27;7.70;99.90
3542;DHT22;1785;47.388;8.538;2024-02-04T10:22:00;8.00;99.90
3542;DHT22;1785;47.388;8.538;2024-02-04T10:24:27;8.30;99.90
3542;DHT22;1785;47.388;8.538;2024-02-04T10:26:54;8.60;99.90
3542;DHT22;1785;47.388;8.538;2024-02-04T10:29:21;8.60;99.90
3542;DHT22;1785;47.388;8.538;2024-02-04T10:31:47;8.50;99.90
3542;DHT22;1785;47.388;8.538;2024-02-04T10:34:14;8.70;99.90
3542;DHT22;1785;47.388;8.538;2024-02-04T10:36:40;8.50;99.90
3542;DHT22;1785;47.388;8.538;2024-02-04T10:39:06;8.50;99.90
3542;DHT22;1785;47.388;8.538;2024-02-04T10:41:34;8.60;99.90
3542;DHT22;1785;47.388;8.538;2024-02-04T10:44:03;8.60;99.90
3542;DHT22;1785;47.388;8.538;2024-02-04T10:46:30;8.10;99.90
3542;DHT22;1785;47.388;8.538;2024-02-04T10:49:00;7.70;99.90
3542;DHT22;1785;47.388;8.538;2024-02-04T10:51:31;8.10;99.90
3542;DHT22;1785;47.388;8.538;2024-02-04T10:53:59;8.60;99.90
3542;DHT22;1785;47.388;8.538;2024-02-04T10:56:30;8.80;99.90
3542;DHT22;1785;47.388;8.538;2024-02-04T10:58:58;8.90;99.90
3542;DHT22;1785;47.388;8.538;2024-02-04T11:01:28;9.20;99.90
3542;DHT22;1785;47.388;8.538;2024-02-04T11:03:54;9.30;99.90
3542;DHT22;1785;47.388;8.538;2024-02-04T11:06:21;9.30;99.90
3542;DHT22;1785;47.388;8.538;2024-02-04T11:08:48;9.00;99.90
3542;DHT22;1785;47.388;8.538;2024-02-04T11:11:14;8.90;99.90
3542;DHT22;1785;47.388;8.538;2024-02-04T11:13:42;9.10;99.90
3542;DHT22;1785;47.388;8.538;2024-02-04T11:16:18;9.30;99.90
3542;DHT22;1785;47.388;8.538;2024-02-04T11:18:57;9.50;99.90
3542;DHT22;1785;47.388;8.538;2024-02-04T11:21:45;9.20;99.90
3542;DHT22;1785;47.388;8.538;2024-02-04T11:24:26;9.40;99.90
3542;DHT22;1785;47.388;8.538;2024-02-04T11:26:57;9.80;99.90
3542;DHT22;1785;47.388;8.538;2024-02-04T11:29:24;9.90;99.90
3542;DHT22;1785;47.388;8.538;2024-02-04T11:31:53;10.00;99.90
3542;DHT22;1785;47.388;8.538;2024-02-04T11:34:19;10.10;99.90
3542;DHT22;1785;47.388;8.538;2024-02-04T11:36:46;10.10;99.90
3542;DHT22;1785;47.388;8.538;2024-02-04T11:39:12;10.40;99.90
3542;DHT22;1785;47.388;8.538;2024-02-04T11:41:45;10.30;99.90
3542;DHT22;1785;47.388;8.538;2024-02-04T11:44:11;10.30;99.90
3542;DHT22;1785;47.388;8.538;2024-02-04T11:46:38;10.30;99.90
3542;DHT22;1785;47.388;8.538;2024-02-04T11:49:14;10.10;99.90
3542;DHT22;1785;47.388;8.538;2024-02-04T11:51:40;10.20;99.90
3542;DHT22;1785;47.388;8.538;2024-02-04T11:54:07;10.20;99.90
3542;DHT22;1785;47.388;8.538;2024-02-04T11:56:33;10.00;99.90
3542;DHT22;1785;47.388;8.538;2024-02-04T11:59:01;10.00;99.90
3542;DHT22;1785;47.388;8.538;2024-02-04T12:01:31;10.10;99.90
3542;DHT22;1785;47.388;8.538;2024-02-04T12:03:57;10.30;99.90
3542;DHT22;1785;47.388;8.538;2024-02-04T12:06:24;10.10;99.90
3542;DHT22;1785;47.388;8.538;2024-02-04T12:08:51;9.80;99.90
3542;DHT22;1785;47.388;8.538;2024-02-04T12:11:17;9.80;99.90
3542;DHT22;1785;47.388;8.538;2024-02-04T12:13:43;9.70;99.90
3542;DHT22;1785;47.388;8.538;2024-02-04T12:16:10;9.60;99.90
3542;DHT22;1785;47.388;8.538;2024-02-04T12:18:36;9.60;99.90
3542;DHT22;1785;47.388;8.538;2024-02-04T12:21:02;9.90;99.90
3542;DHT22;1785;47.388;8.538;2024-02-04T12:23:30;10.30;99.90
3542;DHT22;1785;47.388;8.538;2024-02-04T12:25:56;10.60;99.90
3542;DHT22;1785;47.388;8.538;2024-02-04T12:28:23;10.50;99.90
3542;DHT22;1785;47.388;8.538;2024-02-04T12:30:55;10.60;99.90
3542;DHT22;1785;47.388;8.538;2024-02-04T12:33:21;10.70;99.90
3542;DHT22;1785;47.388;8.538;2024-02-04T12:35:49;11.00;99.90
3542;DHT22;1785;47.388;8.538;2024-02-04T12:38:16;11.00;99.90
3542;DHT22;1785;47.388;8.538;2024-02-04T12:40:43;11.10;99.90
3542;DHT22;1785;47.388;8.538;2024-02-04T12:43:11;11.20;99.90
3542;DHT22;1785;47.388;8.538;2024-02-04T12:45:38;10.60;99.90
3542;DHT22;1785;47.388;8.538;2024-02-04T12:48:04;10.50;99.90
3542;DHT22;1785;47.388;8.538;2024-02-04T12:50:31;10.70;99.90
3542;DHT22;1785;47.388;8.538;2024-02-04T12:53:03;10.90;99.90
3542;DHT22;1785;47.388;8.538;2024-02-04T12:55:30;11.10;99.90
3542;DHT22;1785;47.388;8.538;2024-02-04T12:58:04;11.20;99.90
3542;DHT22;1785;47.388;8.538;2024-02-04T13:00:31;11.10;99.90
3542;DHT22;1785;47.388;8.538;2024-02-04T13:02:57;11.00;99.90
3542;DHT22;1785;47.388;8.538;2024-02-04T13:05:24;10.90;99.90
3542;DHT22;1785;47.388;8.538;2024-02-04T13:07:54;10.80;99.90
3542;DHT22;1785;47.388;8.538;2024-02-04T13:10:22;10.60;99.90
3542;DHT22;1785;47.388;8.538;2024-02-04T13:12:58;10.50;99.90
3542;DHT22;1785;47.388;8.538;2024-02-04T13:15:27;10.60;99.90
3542;DHT22;1785;47.388;8.538;2024-02-04T13:17:53;10.90;99.90
3542;DHT22;1785;47.388;8.538;2024-02-04T13:20:19;10.80;99.90
3542;DHT22;1785;47.388;8.538;2024-02-04T13:22:45;10.60;99.90
3542;DHT22;1785;47.388;8.538;2024-02-04T13:25:11;10.70;99.90
3542;DHT22;1785;47.388;8.538;2024-02-04T13:27:37;11.00;99.90
3542;DHT22;1785;47.388;8.538;2024-02-04T13:30:05;11.10;99.90
3542;DHT22;1785;47.388;8.538;2024-02-04T13:32:36;11.30;99.90
3542;DHT22;1785;47.388;8.538;2024-02-04T13:35:02;11.20;99.90
3542;DHT22;1785;47.388;8.538;2024-02-04T13:37:29;11.40;99.90
3542;DHT22;1785;47.388;8.538;2024-02-04T13:39:55;11.30;99.90
3542;DHT22;1785;47.388;8.538;2024-02-04T13:42:21;11.20;99.90
3542;DHT22;1785;47.388;8.538;2024-02-04T13:44:47;11.20;99.90
3542;DHT22;1785;47.388;8.538;2024-02-04T13:47:13;11.30;99.90
3542;DHT22;1785;47.388;8.538;2024-02-04T13:49:40;11.40;99.90
3542;DHT22;1785;47.388;8.538;2024-02-04T13:52:06;11.30;99.90
3542;DHT22;1785;47.388;8.538;2024-02-04T13:54:32;11.30;99.90
3542;DHT22;1785;47.388;8.538;2024-02-04T13:56:59;11.50;99.90
3542;DHT22;1785;47.388;8.538;2024-02-04T13:59:25;11.60;99.90
3542;DHT22;1785;47.388;8.538;2024-02-04T14:01:52;11.40;99.90
3542;DHT22;1785;47.388;8.538;2024-02-04T14:04:18;11.40;99.90
3542;DHT22;1785;47.388;8.538;2024-02-04T14:06:45;11.30;99.90
3542;DHT22;1785;47.388;8.538;2024-02-04T14:09:11;11.10;99.90
3542;DHT22;1785;47.388;8.538;2024-02-04T14:11:38;11.10;99.90
3542;DHT22;1785;47.388;8.538;2024-02-04T14:14:04;11.10;99.90
3542;DHT22;1785;47.388;8.538;2024-02-04T14:16:30;11.20;99.90
3542;DHT22;1785;47.388;8.538;2024-02-04T14:18:56;11.30;99.90
3542;DHT22;1785;47.388;8.538;2024-02-04T14:21:22;11.20;99.90
3542;DHT22;1785;47.388;8.538;2024-02-04T14:23:49;11.20;99.90
3542;DHT22;1785;47.388;8.538;2024-02-04T14:26:16;11.10;99.90
3542;DHT22;1785;47.388;8.538;2024-02-04T14:28:43;11.20;99.90
3542;DHT22;1785;47.388;8.538;2024-02-04T14:31:09;11.20;99.90
3542;DHT22;1785;47.388;8.538;2024-02-04T14:33:35;11.20;99.90
3542;DHT22;1785;47.388;8.538;2024-02-04T14:36:01;11.20;99.90
3542;DHT22;1785;47.388;8.538;2024-02-04T14:38:29;11.30;99.90
3542;DHT22;1785;47.388;8.538;2024-02-04T14:40:57;11.30;99.90
3542;DHT22;1785;47.388;8.538;2024-02-04T14:43:24;11.40;99.90
3542;DHT22;1785;47.388;8.538;2024-02-04T14:45:50;11.40;99.90
3542;DHT22;1785;47.388;8.538;2024-02-04T14:48:16;11.10;99.90
3542;DHT22;1785;47.388;8.538;2024-02-04T14:50:43;11.00;99.90
3542;DHT22;1785;47.388;8.538;2024-02-04T14:53:09;10.90;99.90
3542;DHT22;1785;47.388;8.538;2024-02-04T14:55:35;11.00;99.90
3542;DHT22;1785;47.388;8.538;2024-02-04T14:58:03;11.20;99.90
3542;DHT22;1785;47.388;8.538;2024-02-04T15:00:29;11.20;99.90
3542;DHT22;1785;47.388;8.538;2024-02-04T15:02:55;11.20;99.90
3542;DHT22;1785;47.388;8.538;2024-02-04T15:05:21;11.30;99.90
3542;DHT22;1785;47.388;8.538;2024-02-04T15:07:47;11.30;99.90
3542;DHT22;1785;47.388;8.538;2024-02-04T15:10:14;11.10;99.90
3542;DHT22;1785;47.388;8.538;2024-02-04T15:12:41;11.00;99.90
3542;DHT22;1785;47.388;8.538;2024-02-04T15:15:09;11.00;99.90
3542;DHT22;1785;47.388;8.538;2024-02-04T15:17:36;11.00;99.90
3542;DHT22;1785;47.388;8.538;2024-02-04T15:20:03;10.90;99.90
3542;DHT22;1785;47.388;8.538;2024-02-04T15:22:30;11.00;99.90
3542;DHT22;1785;47.388;8.538;2024-02-04T15:24:56;10.90;99.90
3542;DHT22;1785;47.388;8.538;2024-02-04T15:27:24;10.80;99.90
3542;DHT22;1785;47.388;8.538;2024-02-04T15:29:55;10.80;99.90
3542;DHT22;1785;47.388;8.538;2024-02-04T15:32:22;10.80;99.90
3542;DHT22;1785;47.388;8.538;2024-02-04T15:34:49;10.90;99.90
3542;DHT22;1785;47.388;8.538;2024-02-04T15:37:16;11.00;99.90
3542;DHT22;1785;47.388;8.538;2024-02-04T15:39:44;11.00;99.90
3542;DHT22;1785;47.388;8.538;2024-02-04T15:42:10;11.00;99.90
3542;DHT22;1785;47.388;8.538;2024-02-04T15:44:36;10.80;99.90
3542;DHT22;1785;47.388;8.538;2024-02-04T15:47:03;10.70;99.90
3542;DHT22;1785;47.388;8.538;2024-02-04T15:49:31;10.80;99.90
3542;DHT22;1785;47.388;8.538;2024-02-04T15:51:58;10.80;99.90
3542;DHT22;1785;47.388;8.538;2024-02-04T15:54:25;10.90;99.90
3542;DHT22;1785;47.388;8.538;2024-02-04T15:56:55;10.90;99.90
3542;DHT22;1785;47.388;8.538;2024-02-04T15:59:31;10.80;99.90
3542;DHT22;1785;47.388;8.538;2024-02-04T16:02:01;10.40;99.90
3542;DHT22;1785;47.388;8.538;2024-02-04T16:04:31;10.50;99.90
3542;DHT22;1785;47.388;8.538;2024-02-04T16:06:57;10.60;99.90
3542;DHT22;1785;47.388;8.538;2024-02-04T16:09:24;10.70;99.90